createdAt,value
2018-08-25T00:02:08.427Z,0.60
2018-08-25T00:04:37.232Z,0.80
2018-08-25T00:07:06.017Z,0.53
2018-08-25T00:09:34.842Z,0.67
2018-08-25T00:12:03.680Z,0.53
2018-08-25T00:14:32.472Z,0.90
2018-08-25T00:17:01.343Z,0.60
2018-08-25T00:19:30.275Z,0.40
2018-08-25T00:21:59.092Z,0.67
2018-08-25T00:24:27.909Z,0.70
2018-08-25T00:26:56.776Z,0.80
2018-08-25T00:29:25.612Z,0.87
2018-08-25T00:31:54.500Z,1.30
2018-08-25T00:34:23.426Z,0.70
2018-08-25T00:36:52.196Z,0.90
2018-08-25T00:39:21.047Z,0.50
2018-08-25T00:41:49.892Z,0.50
2018-08-25T00:44:18.806Z,0.90
2018-08-25T00:46:47.641Z,0.97
2018-08-25T00:49:16.473Z,0.93
2018-08-25T00:51:45.368Z,1.00
2018-08-25T00:54:14.215Z,0.70
2018-08-25T00:56:43.156Z,0.73
2018-08-25T00:59:12.004Z,0.87
2018-08-25T01:01:40.831Z,0.60
2018-08-25T01:04:09.640Z,0.70
2018-08-25T01:06:38.576Z,0.83
2018-08-25T01:09:09.056Z,0.87
2018-08-25T01:11:37.886Z,0.50
2018-08-25T01:14:06.803Z,1.93
2018-08-25T01:16:35.578Z,0.80
2018-08-25T01:19:04.448Z,0.87
2018-08-25T01:21:33.256Z,0.77
2018-08-25T01:24:02.130Z,1.00
2018-08-25T01:26:30.905Z,0.80
2018-08-25T01:28:59.695Z,1.20
2018-08-25T01:31:29.351Z,0.90
2018-08-25T01:34:00.072Z,1.13
2018-08-25T01:36:29.021Z,1.27
2018-08-25T01:38:57.905Z,0.87
2018-08-25T01:41:26.766Z,0.80
2018-08-25T01:43:55.548Z,0.80
2018-08-25T01:46:24.727Z,1.00
2018-08-25T01:48:53.657Z,0.70
2018-08-25T01:51:22.448Z,0.83
2018-08-25T01:53:51.338Z,1.13
2018-08-25T01:56:20.156Z,0.97
2018-08-25T01:58:49.038Z,2.17
2018-08-25T02:01:17.842Z,0.90
2018-08-25T02:03:46.649Z,0.90
2018-08-25T02:06:15.572Z,1.27
2018-08-25T02:08:44.358Z,1.10
2018-08-25T02:11:13.187Z,0.70
2018-08-25T02:13:41.987Z,1.07
2018-08-25T02:16:10.841Z,0.90
2018-08-25T02:18:39.646Z,1.10
2018-08-25T02:21:08.485Z,1.27
2018-08-25T02:23:37.286Z,1.00
2018-08-25T02:26:06.134Z,1.10
2018-08-25T02:28:35.260Z,1.10
2018-08-25T02:31:04.116Z,1.17
2018-08-25T02:33:33.105Z,1.20
2018-08-25T02:36:02.283Z,1.07
2018-08-25T02:38:31.128Z,1.43
2018-08-25T02:40:59.929Z,1.50
2018-08-25T02:43:29.698Z,1.50
2018-08-25T02:45:58.461Z,1.70
2018-08-25T02:48:27.354Z,1.63
2018-08-25T02:50:56.149Z,2.10
2018-08-25T02:53:24.944Z,1.73
2018-08-25T02:55:53.773Z,2.03
2018-08-25T02:58:22.551Z,2.20
2018-08-25T03:00:51.433Z,2.07
2018-08-25T03:03:20.301Z,2.00
2018-08-25T03:05:49.093Z,2.07
2018-08-25T03:08:17.873Z,1.73
2018-08-25T03:10:46.689Z,1.37
2018-08-25T03:13:15.520Z,1.80
2018-08-25T03:15:45.201Z,1.80
2018-08-25T03:18:13.988Z,2.07
2018-08-25T03:20:42.805Z,1.97
2018-08-25T03:23:11.625Z,2.10
2018-08-25T03:25:40.413Z,1.97
2018-08-25T03:28:09.207Z,2.13
2018-08-25T03:30:38.035Z,2.30
2018-08-25T03:33:07.225Z,2.57
2018-08-25T03:35:36.024Z,1.87
2018-08-25T03:38:04.852Z,2.20
2018-08-25T03:40:33.693Z,2.20
2018-08-25T03:43:02.485Z,2.33
2018-08-25T03:45:31.297Z,2.77
2018-08-25T03:48:00.078Z,2.30
2018-08-25T03:50:29.023Z,2.43
2018-08-25T03:52:57.787Z,2.80
2018-08-25T03:55:26.658Z,2.90
2018-08-25T03:57:55.427Z,3.30
2018-08-25T04:00:24.206Z,3.27
2018-08-25T04:02:53.038Z,3.47
2018-08-25T04:05:21.903Z,2.80
2018-08-25T04:07:50.707Z,2.83
2018-08-25T04:10:19.899Z,3.50
2018-08-25T04:12:48.648Z,3.17
2018-08-25T04:15:17.416Z,2.83
2018-08-25T04:17:46.273Z,4.37
2018-08-25T04:20:15.450Z,3.50
2018-08-25T04:22:44.269Z,2.70
2018-08-25T04:25:13.104Z,2.17
2018-08-25T04:27:41.923Z,2.80
2018-08-25T04:30:10.738Z,2.77
2018-08-25T04:32:39.584Z,3.67
2018-08-25T04:35:08.434Z,3.27
2018-08-25T04:37:37.384Z,3.10
2018-08-25T04:40:06.268Z,3.50
2018-08-25T04:42:35.094Z,3.67
2018-08-25T04:45:04.020Z,2.77
2018-08-25T04:47:33.603Z,3.03
2018-08-25T04:50:06.944Z,3.07
2018-08-25T04:52:38.171Z,3.50
2018-08-25T04:55:07.008Z,3.20
2018-08-25T04:57:35.883Z,3.50
2018-08-25T05:00:05.755Z,3.50
2018-08-25T05:02:39.930Z,3.10
2018-08-25T05:05:08.729Z,3.93
2018-08-25T05:07:37.981Z,3.77
2018-08-25T05:10:06.749Z,3.60
2018-08-25T05:12:35.583Z,3.47
2018-08-25T05:15:10.888Z,2.93
2018-08-25T05:17:39.668Z,3.20
2018-08-25T05:20:08.541Z,4.23
2018-08-25T05:22:37.369Z,4.10
2018-08-25T05:25:07.010Z,4.43
2018-08-25T05:27:35.841Z,4.20
2018-08-25T05:30:05.012Z,4.37
2018-08-25T05:32:34.201Z,4.40
2018-08-25T05:35:02.981Z,4.40
2018-08-25T05:37:31.955Z,4.20
2018-08-25T05:40:00.798Z,4.77
2018-08-25T05:42:29.775Z,6.00
2018-08-25T05:44:58.629Z,6.10
2018-08-25T05:47:27.434Z,4.87
2018-08-25T05:49:56.185Z,4.60
2018-08-25T05:52:25.024Z,4.90
2018-08-25T05:54:53.809Z,4.80
2018-08-25T05:57:22.577Z,4.73
2018-08-25T05:59:51.458Z,4.93
2018-08-25T06:02:20.279Z,4.77
2018-08-25T06:04:49.037Z,5.20
2018-08-25T06:07:17.876Z,4.83
2018-08-25T06:09:46.711Z,5.37
2018-08-25T06:12:15.528Z,4.00
2018-08-25T06:14:44.281Z,4.37
2018-08-25T06:17:13.040Z,3.20
2018-08-25T06:19:42.324Z,4.20
2018-08-25T06:22:11.132Z,4.57
2018-08-25T06:24:39.978Z,3.30
2018-08-25T06:27:08.786Z,3.80
2018-08-25T06:29:37.549Z,3.90
2018-08-25T06:32:06.408Z,3.93
2018-08-25T06:34:35.178Z,4.10
2018-08-25T06:37:03.993Z,3.33
2018-08-25T06:39:32.764Z,3.03
2018-08-25T06:42:01.550Z,3.47
2018-08-25T06:44:30.421Z,3.40
2018-08-25T06:46:59.185Z,3.40
2018-08-25T06:49:28.018Z,3.00
2018-08-25T06:51:56.830Z,3.13
2018-08-25T06:54:25.661Z,2.63
2018-08-25T06:56:54.457Z,2.37
2018-08-25T06:59:23.276Z,3.00
2018-08-25T07:01:52.656Z,1.87
2018-08-25T07:04:21.442Z,2.57
2018-08-25T07:06:50.219Z,2.50
2018-08-25T07:09:19.015Z,3.43
2018-08-25T07:11:47.785Z,2.83
2018-08-25T07:14:16.624Z,2.30
2018-08-25T07:16:45.426Z,2.67
2018-08-25T07:19:14.253Z,2.60
2018-08-25T07:21:43.061Z,1.90
2018-08-25T07:24:11.847Z,1.77
2018-08-25T07:26:40.709Z,1.93
2018-08-25T07:29:09.484Z,2.23
2018-08-25T07:31:38.896Z,1.50
2018-08-25T07:34:11.305Z,1.53
2018-08-25T07:36:40.486Z,1.43
2018-08-25T07:39:12.416Z,1.53
2018-08-25T07:41:41.350Z,1.87
2018-08-25T07:44:11.601Z,1.50
2018-08-25T07:46:40.519Z,1.33
2018-08-25T07:49:11.357Z,1.40
2018-08-25T07:51:41.218Z,1.00
2018-08-25T07:54:10.454Z,1.00
2018-08-25T07:56:40.781Z,1.10
2018-08-25T07:59:13.723Z,0.93
2018-08-25T08:01:43.186Z,1.10
2018-08-25T08:04:12.319Z,0.70
2018-08-25T08:06:45.351Z,0.87
2018-08-25T08:09:14.320Z,0.80
2018-08-25T08:11:43.595Z,0.67
2018-08-25T08:14:13.263Z,0.57
2018-08-25T08:16:42.410Z,2.53
2018-08-25T08:19:15.299Z,0.63
2018-08-25T08:21:44.316Z,0.73
2018-08-25T08:24:13.150Z,0.57
2018-08-25T08:26:42.000Z,0.77
2018-08-25T08:29:10.785Z,0.40
2018-08-25T08:31:39.689Z,0.60
2018-08-25T08:34:08.748Z,0.40
2018-08-25T08:36:37.537Z,0.60
2018-08-25T08:39:09.386Z,0.57
2018-08-25T08:41:38.756Z,0.40
2018-08-25T08:44:07.899Z,0.60
2018-08-25T08:46:37.427Z,0.50
2018-08-25T08:49:08.972Z,0.83
2018-08-25T08:51:39.603Z,0.43
2018-08-25T08:54:09.810Z,0.77
2018-08-25T08:56:40.383Z,0.40
2018-08-25T08:59:11.135Z,0.60
2018-08-25T09:01:42.184Z,0.43
2018-08-25T09:04:14.096Z,0.50
2018-08-25T09:06:44.648Z,0.50
2018-08-25T09:09:13.451Z,0.50
2018-08-25T09:11:42.246Z,0.40
2018-08-25T09:14:11.404Z,0.40
2018-08-25T09:16:40.175Z,0.50
2018-08-25T09:19:15.220Z,0.53
2018-08-25T09:21:44.098Z,0.60
2018-08-25T09:24:15.086Z,0.70
2018-08-25T09:26:43.949Z,0.47
2018-08-25T09:29:12.775Z,0.60
2018-08-25T09:31:43.761Z,0.70
2018-08-25T09:34:14.349Z,0.70
2018-08-25T09:36:43.602Z,0.70
2018-08-25T09:39:12.360Z,0.70
2018-08-25T09:41:41.559Z,0.63
2018-08-25T09:44:10.349Z,0.60
2018-08-25T09:46:39.124Z,1.00
2018-08-25T09:49:07.939Z,0.70
2018-08-25T09:51:36.701Z,0.50
2018-08-25T09:54:05.549Z,0.73
2018-08-25T09:56:34.303Z,0.60
2018-08-25T09:59:03.164Z,0.63
2018-08-25T10:01:36.965Z,0.60
2018-08-25T10:04:05.952Z,1.43
2018-08-25T10:06:34.929Z,0.60
2018-08-25T10:09:05.042Z,0.53
2018-08-25T10:11:33.999Z,0.60
2018-08-25T10:14:02.967Z,0.57
2018-08-25T10:16:31.916Z,0.50
2018-08-25T10:19:00.782Z,0.50
2018-08-25T10:21:29.628Z,0.97
2018-08-25T10:24:01.217Z,0.93
2018-08-25T10:26:30.923Z,0.80
2018-08-25T10:29:01.685Z,0.70
2018-08-25T10:31:32.211Z,0.77
2018-08-25T10:34:02.285Z,0.80
2018-08-25T10:36:31.422Z,0.87
2018-08-25T10:39:01.934Z,1.20
2018-08-25T10:41:31.427Z,0.90
2018-08-25T10:44:00.234Z,0.80
2018-08-25T10:46:29.590Z,0.60
2018-08-25T10:48:58.382Z,0.87
2018-08-25T10:51:29.351Z,0.93
2018-08-25T10:54:09.093Z,0.60
2018-08-25T10:56:38.583Z,0.70
2018-08-25T10:59:07.442Z,1.00
2018-08-25T11:01:36.289Z,1.10
2018-08-25T11:04:12.761Z,1.30
2018-08-25T11:06:42.094Z,0.80
2018-08-25T11:09:13.607Z,0.60
2018-08-25T11:11:42.512Z,1.00
2018-08-25T11:14:11.577Z,2.13
2018-08-25T11:16:40.382Z,1.30
2018-08-25T11:19:09.198Z,1.90
2018-08-25T11:21:37.988Z,1.03
2018-08-25T11:24:06.799Z,1.70
2018-08-25T11:26:35.688Z,1.30
2018-08-25T11:29:04.552Z,1.10
2018-08-25T11:31:33.325Z,1.50
2018-08-25T11:34:02.331Z,1.27
2018-08-25T11:36:31.190Z,0.70
2018-08-25T11:38:59.993Z,1.10
2018-08-25T11:41:28.809Z,0.73
2018-08-25T11:43:57.627Z,1.23
2018-08-25T11:46:26.420Z,0.87
2018-08-25T11:48:55.293Z,0.70
2018-08-25T11:51:24.125Z,0.70
2018-08-25T11:53:52.917Z,0.73
2018-08-25T11:56:21.733Z,0.80
2018-08-25T11:58:50.520Z,0.90
2018-08-25T12:01:19.330Z,1.00
2018-08-25T12:03:48.112Z,1.20
2018-08-25T12:06:16.992Z,1.80
2018-08-25T12:08:45.806Z,1.40
2018-08-25T12:11:14.582Z,1.07
2018-08-25T12:13:43.743Z,0.90
2018-08-25T12:16:12.959Z,1.20
2018-08-25T12:18:41.929Z,1.43
2018-08-25T12:21:10.712Z,0.90
2018-08-25T12:23:39.520Z,0.70
2018-08-25T12:26:08.400Z,0.80
2018-08-25T12:28:37.243Z,1.00
2018-08-25T12:31:06.077Z,1.13
2018-08-25T12:33:34.894Z,0.70
2018-08-25T12:36:03.890Z,0.47
2018-08-25T12:38:32.790Z,0.57
2018-08-25T12:41:01.576Z,0.60
2018-08-25T12:43:30.516Z,0.80
2018-08-25T12:45:59.303Z,0.67
2018-08-25T12:48:28.960Z,0.60
2018-08-25T12:50:57.791Z,0.60
2018-08-25T12:53:26.609Z,0.53
2018-08-25T12:55:55.486Z,0.70
2018-08-25T12:58:24.974Z,0.60
2018-08-25T13:00:53.828Z,0.83
2018-08-25T13:03:22.677Z,0.70
2018-08-25T13:05:51.435Z,0.70
2018-08-25T13:08:20.276Z,0.50
2018-08-25T13:10:49.157Z,0.70
2018-08-25T13:13:17.960Z,0.83
2018-08-25T13:15:47.100Z,0.60
2018-08-25T13:18:15.893Z,0.50
2018-08-25T13:20:44.684Z,0.70
2018-08-25T13:23:13.459Z,0.70
2018-08-25T13:25:42.264Z,0.83
2018-08-25T13:28:11.464Z,0.90
2018-08-25T13:30:40.701Z,1.30
2018-08-25T13:33:09.534Z,0.70
2018-08-25T13:35:38.652Z,0.70
2018-08-25T13:38:07.483Z,0.47
2018-08-25T13:40:36.409Z,0.70
2018-08-25T13:43:05.268Z,0.93
2018-08-25T13:45:34.149Z,0.60
2018-08-25T13:48:02.944Z,0.80
2018-08-25T13:50:31.769Z,0.80
2018-08-25T13:53:00.628Z,0.80
2018-08-25T13:55:29.485Z,0.70
2018-08-25T13:57:58.241Z,0.57
2018-08-25T14:00:27.048Z,0.60
2018-08-25T14:02:55.929Z,0.77
2018-08-25T14:05:25.143Z,0.83
2018-08-25T14:07:53.940Z,0.80
2018-08-25T14:10:22.851Z,0.90
2018-08-25T14:12:51.748Z,0.43
2018-08-25T14:15:21.883Z,0.60
2018-08-25T14:17:50.923Z,0.73
2018-08-25T14:20:19.733Z,0.80
2018-08-25T14:22:48.553Z,1.20
2018-08-25T14:25:17.356Z,1.00
2018-08-25T14:27:47.340Z,0.90
2018-08-25T14:30:16.184Z,0.73
2018-08-25T14:32:45.361Z,0.60
2018-08-25T14:35:14.151Z,0.60
2018-08-25T14:37:42.922Z,1.10
2018-08-25T14:40:11.802Z,0.67
2018-08-25T14:42:40.567Z,0.70
2018-08-25T14:45:09.337Z,0.80
2018-08-25T14:47:38.147Z,0.90
2018-08-25T14:50:07.597Z,1.00
2018-08-25T14:52:43.899Z,0.97
2018-08-25T14:55:17.349Z,0.80
2018-08-25T14:57:46.149Z,1.03
2018-08-25T15:00:16.326Z,0.67
2018-08-25T15:02:46.840Z,0.90
2018-08-25T15:05:15.700Z,0.70
2018-08-25T15:07:44.446Z,1.00
2018-08-25T15:10:15.907Z,1.00
2018-08-25T15:12:44.782Z,1.03
2018-08-25T15:15:15.568Z,0.80
2018-08-25T15:17:47.053Z,0.70
2018-08-25T15:20:15.923Z,1.10
2018-08-25T15:22:45.450Z,0.70
2018-08-25T15:25:15.565Z,0.90
2018-08-25T15:27:44.824Z,0.60
2018-08-25T15:30:15.143Z,1.00
2018-08-25T15:32:51.636Z,1.07
2018-08-25T15:35:21.582Z,0.80
2018-08-25T15:37:50.714Z,0.90
2018-08-25T15:40:22.015Z,1.00
2018-08-25T15:42:53.216Z,0.97
2018-08-25T15:45:23.187Z,1.17
2018-08-25T15:47:51.988Z,0.97
2018-08-25T15:50:20.781Z,0.70
2018-08-25T15:52:49.985Z,0.83
2018-08-25T15:55:20.220Z,0.50
2018-08-25T15:57:50.567Z,0.97
2018-08-25T16:00:20.850Z,0.40
2018-08-25T16:02:51.618Z,0.60
2018-08-25T16:05:20.499Z,0.70
2018-08-25T16:07:49.323Z,0.80
2018-08-25T16:10:18.949Z,0.73
2018-08-25T16:12:50.359Z,0.80
2018-08-25T16:15:24.096Z,1.00
2018-08-25T16:17:53.389Z,0.70
2018-08-25T16:20:22.319Z,0.70
2018-08-25T16:22:51.135Z,0.73
2018-08-25T16:25:20.224Z,0.63
2018-08-25T16:27:49.483Z,0.60
2018-08-25T16:30:18.928Z,0.90
2018-08-25T16:32:49.578Z,0.67
2018-08-25T16:35:18.451Z,0.53
2018-08-25T16:37:47.245Z,0.70
2018-08-25T16:40:16.171Z,0.57
2018-08-25T16:42:45.141Z,0.80
2018-08-25T16:45:14.370Z,0.83
2018-08-25T16:47:44.018Z,0.70
2018-08-25T16:50:12.894Z,0.50
2018-08-25T16:52:41.974Z,0.83
2018-08-25T16:55:10.800Z,0.50
2018-08-25T16:57:39.659Z,0.70
2018-08-25T17:00:09.422Z,1.00
2018-08-25T17:02:39.305Z,0.77
2018-08-25T17:05:10.130Z,0.60
2018-08-25T17:07:39.708Z,0.63
2018-08-25T17:10:09.276Z,0.60
2018-08-25T17:12:39.171Z,0.50
2018-08-25T17:15:08.247Z,0.50
2018-08-25T17:17:37.162Z,0.40
2018-08-25T17:20:06.304Z,0.80
2018-08-25T17:22:36.607Z,0.67
2018-08-25T17:25:08.240Z,0.97
2018-08-25T17:27:39.521Z,0.80
2018-08-25T17:30:09.854Z,0.60
2018-08-25T17:32:38.739Z,0.67
2018-08-25T17:35:08.120Z,0.67
2018-08-25T17:37:37.920Z,0.60
2018-08-25T17:40:07.357Z,0.60
2018-08-25T17:42:36.957Z,0.67
2018-08-25T17:45:07.771Z,0.90
2018-08-25T17:47:42.860Z,0.63
2018-08-25T17:50:26.017Z,0.57
2018-08-25T17:52:55.560Z,1.00
2018-08-25T17:55:24.811Z,0.60
2018-08-25T17:57:53.609Z,1.40
2018-08-25T18:00:22.794Z,0.70
2018-08-25T18:02:51.570Z,0.60
2018-08-25T18:05:20.370Z,0.90
2018-08-25T18:07:49.206Z,0.80
2018-08-25T18:10:18.153Z,0.60
2018-08-25T18:12:46.922Z,0.70
2018-08-25T18:15:15.784Z,0.73
2018-08-25T18:17:45.559Z,1.00
2018-08-25T18:20:15.022Z,0.70
2018-08-25T18:22:44.461Z,1.20
2018-08-25T18:25:14.480Z,0.80
2018-08-25T18:27:44.841Z,0.70
2018-08-25T18:30:13.691Z,0.60
2018-08-25T18:32:42.601Z,0.80
2018-08-25T18:35:11.385Z,0.50
2018-08-25T18:37:40.963Z,0.80
2018-08-25T18:40:10.925Z,0.80
2018-08-25T18:42:39.689Z,0.73
2018-08-25T18:45:08.979Z,1.30
2018-08-25T18:47:37.902Z,1.07
2018-08-25T18:50:07.461Z,0.80
2018-08-25T18:52:36.546Z,0.60
2018-08-25T18:55:05.596Z,0.90
2018-08-25T18:57:34.924Z,0.97
2018-08-25T19:00:03.951Z,1.50
2018-08-25T19:02:32.730Z,0.80
2018-08-25T19:05:01.869Z,0.87
2018-08-25T19:07:31.227Z,1.00
2018-08-25T19:09:59.993Z,1.00
2018-08-25T19:12:28.863Z,0.60
2018-08-25T19:14:58.064Z,0.77
2018-08-25T19:17:26.894Z,0.80
2018-08-25T19:19:55.677Z,0.73
2018-08-25T19:22:24.473Z,0.87
2018-08-25T19:24:53.224Z,0.70
2018-08-25T19:27:22.805Z,0.77
2018-08-25T19:29:51.920Z,0.70
2018-08-25T19:32:20.646Z,0.80
2018-08-25T19:34:50.735Z,0.83
2018-08-25T19:37:20.641Z,0.83
2018-08-25T19:39:50.381Z,0.57
2018-08-25T19:42:19.351Z,0.80
2018-08-25T19:44:48.494Z,0.70
2018-08-25T19:47:17.370Z,1.13
2018-08-25T19:49:46.790Z,0.70
2018-08-25T19:52:17.437Z,0.90
2018-08-25T19:54:46.216Z,1.10
2018-08-25T19:57:15.062Z,1.07
2018-08-25T19:59:44.021Z,0.83
2018-08-25T20:02:12.784Z,0.70
2018-08-25T20:04:41.749Z,1.00
2018-08-25T20:07:11.850Z,0.80
2018-08-25T20:09:40.856Z,1.10
2018-08-25T20:12:11.438Z,0.77
2018-08-25T20:14:40.301Z,0.83
2018-08-25T20:17:13.703Z,1.10
2018-08-25T20:19:43.940Z,0.87
2018-08-25T20:22:13.677Z,1.27
2018-08-25T20:24:42.804Z,1.13
2018-08-25T20:27:11.875Z,1.00
2018-08-25T20:29:40.735Z,0.70
2018-08-25T20:32:09.549Z,1.20
2018-08-25T20:34:38.359Z,0.90
2018-08-25T20:37:07.748Z,1.30
2018-08-25T20:39:36.517Z,1.00
2018-08-25T20:42:05.412Z,1.27
2018-08-25T20:44:34.218Z,1.20
2018-08-25T20:47:03.016Z,1.03
2018-08-25T20:49:31.796Z,1.80
2018-08-25T20:52:00.598Z,1.10
2018-08-25T20:54:40.785Z,1.30
2018-08-25T20:57:09.792Z,1.17
2018-08-25T20:59:38.623Z,1.20
2018-08-25T21:02:07.584Z,1.00
2018-08-25T21:04:36.402Z,1.50
2018-08-25T21:07:05.340Z,0.87
2018-08-25T21:09:34.128Z,0.93
2018-08-25T21:12:02.908Z,0.93
2018-08-25T21:14:31.785Z,1.10
2018-08-25T21:17:00.617Z,0.70
2018-08-25T21:19:29.478Z,0.97
2018-08-25T21:21:58.358Z,0.60
2018-08-25T21:24:27.189Z,1.00
2018-08-25T21:26:56.229Z,1.00
2018-08-25T21:29:25.046Z,1.10
2018-08-25T21:31:53.864Z,1.07
2018-08-25T21:34:22.778Z,1.07
2018-08-25T21:36:51.605Z,1.10
2018-08-25T21:39:28.272Z,1.07
2018-08-25T21:42:04.670Z,1.20
2018-08-25T21:44:41.172Z,1.07
2018-08-25T21:47:18.370Z,1.10
2018-08-25T21:49:55.872Z,1.17
2018-08-25T21:52:34.361Z,0.90
2018-08-25T21:55:03.669Z,1.40
2018-08-25T21:57:32.529Z,1.10
2018-08-25T22:00:01.379Z,0.90
2018-08-25T22:02:30.208Z,0.83
2018-08-25T22:04:59.028Z,0.90
2018-08-25T22:07:27.802Z,1.00
2018-08-25T22:09:56.679Z,1.07
2018-08-25T22:12:25.497Z,1.40
2018-08-25T22:14:54.347Z,0.80
2018-08-25T22:17:25.433Z,0.93
2018-08-25T22:19:54.289Z,1.27
2018-08-25T22:22:23.062Z,0.90
2018-08-25T22:24:51.814Z,1.10
2018-08-25T22:27:20.645Z,1.20
2018-08-25T22:29:49.424Z,1.33
2018-08-25T22:32:18.194Z,1.27
2018-08-25T22:34:48.645Z,1.13
2018-08-25T22:37:17.466Z,1.20
2018-08-25T22:39:46.260Z,1.33
2018-08-25T22:42:15.214Z,1.50
2018-08-25T22:44:43.972Z,1.27
2018-08-25T22:47:12.778Z,1.00
2018-08-25T22:49:41.608Z,1.10
2018-08-25T22:52:10.394Z,1.20
2018-08-25T22:54:39.234Z,1.10
2018-08-25T22:57:08.009Z,1.10
2018-08-25T22:59:36.829Z,1.00
2018-08-25T23:02:05.702Z,0.87
2018-08-25T23:04:34.467Z,1.30
2018-08-25T23:07:03.288Z,1.23
2018-08-25T23:09:32.057Z,1.07
2018-08-25T23:12:00.908Z,1.30
2018-08-25T23:14:29.788Z,0.97
2018-08-25T23:16:58.592Z,1.37
2018-08-25T23:19:27.381Z,1.00
2018-08-25T23:21:56.399Z,1.03
2018-08-25T23:24:25.172Z,1.30
2018-08-25T23:26:53.966Z,0.80
2018-08-25T23:29:22.808Z,1.10
2018-08-25T23:31:51.603Z,1.10
2018-08-25T23:34:20.382Z,0.93
2018-08-25T23:36:49.220Z,0.87
2018-08-25T23:39:18.041Z,1.00
2018-08-25T23:41:46.794Z,1.40
2018-08-25T23:44:16.007Z,1.00
2018-08-25T23:46:44.765Z,2.13
2018-08-25T23:49:13.553Z,0.90
2018-08-25T23:51:42.391Z,1.13
2018-08-25T23:54:11.192Z,1.20
2018-08-25T23:56:40.350Z,1.30
2018-08-25T23:59:09.170Z,1.20
